Latest Coastal Weather Observations for Esperance

IDW60701

Issued at 11:13 pm WST Tuesday 24 January 2017 (issued every 10 minutes, with the page automatically refreshed every 10 minutes)

About coastal observations | Map of coastal stations | Coastal observations for WA | Marine services | Other Formats
Station Details ID: 009789 Name: ESPERANCE Lat: -33.83 Lon: 121.89 Height: 25.0 m
Data from the previous 72 hours. | See also: Recent months at Esperance
Date/Time
WST
Temp
°C
Wind Pressure Rain since
9am
mm
Weather Cloud Vis
km
Sea
Height
m
Swell
Dir  Spd
kts
Gust
kts
hPa Trend Height
m
Period
s
Dir
24/11:00pm 15.6 E 5 8 1021.3 - 0.0 - - 10 - - - -
24/10:30pm 15.9 E 7 9 1021.2 - 0.0 - - 10 - - - -
24/10:00pm 16.3 E 6 9 1021.2 - 0.0 - - 10 - - - -
24/09:30pm 16.6 E 7 10 1021.1 - 0.0 - - 10 - - - -
24/09:00pm 17.2 E 7 12 1021.0 R 0.0 - - 10 - - - -
24/08:30pm 17.6 ESE 9 13 1020.9 - 0.0 - - 10 - - - -
24/08:00pm 17.9 ESE 11 16 1020.6 - 0.0 - - 10 - - - -
24/07:30pm 18.1 ESE 13 18 1020.2 - 0.0 - - 10 - - - -
24/07:00pm 18.4 ESE 11 17 1020.1 - 0.0 - - 10 - - - -
24/06:30pm 19.1 ESE 13 17 1019.9 - 0.0 - - 10 - - - -
24/06:00pm 19.5 SE 14 19 1019.6 R 0.0 - - 10 - - - -
24/05:30pm 20.0 SE 15 19 1019.5 - 0.0 - - 10 - - - -
24/05:00pm 20.2 SE 15 21 1019.3 - 0.0 - - 10 - - - -
24/04:30pm 20.2 SE 16 22 1019.2 - 0.0 - - 10 - - - -
24/04:00pm 20.3 SE 17 21 1019.3 - 0.0 - - 10 - - - -
24/03:30pm 19.9 SE 17 22 1019.1 - 0.0 - - 10 - - - -
24/03:00pm 20.8 SE 18 23 1019.4 F 0.0 - - 10 - - - -
24/02:30pm 20.6 SSE 18 23 1019.7 - 0.0 - - 10 - - - -
24/02:00pm 20.7 SSE 18 24 1019.7 - 0.0 - - 10 - - - -
24/01:49pm 21.0 SSE 18 23 1019.9 - 0.0 - - 10 - - - -
24/01:30pm 20.2 SSE 17 22 1020.0 - 0.0 - - 10 - - - -
24/01:00pm 20.6 SSE 16 21 1020.2 - 0.0 - - 10 - - - -
24/12:30pm 20.4 SE 16 20 1020.5 - 0.0 - - 10 - - - -
24/12:00pm 20.3 SSE 15 18 1020.7 F 0.0 - - 10 - - - -
24/11:30am 20.9 SE 11 15 1021.1 - 0.0 - - 10 - - - -
24/11:00am 21.8 SE 8 11 1021.4 - 0.0 - - 10 - - - -
24/10:30am 21.0 SE 8 12 1021.6 - 0.0 - - 10 - - - -
24/10:00am 20.1 ESE 8 12 1021.8 - 0.0 - Mostly clear 10 - - - -
24/09:30am 19.9 N 6 10 1022.0 - 0.0 - Mostly clear 10 - - - -
24/09:00am 19.6 NW 5 8 1022.1 R 0.0 - Mostly clear 10 - - - -
24/08:30am 18.6 NNE 7 10 1022.3 - 0.0 - Mostly clear 10 - - - -
24/08:00am 17.8 N 7 10 1022.4 - 0.0 - Mostly clear 10 - - - -
24/07:30am 16.5 NNE 7 9 1022.3 - 0.0 - Mostly clear 10 - - - -
24/07:00am 14.4 N 6 7 1022.3 - 0.0 - Mostly clear 10 - - - -
24/06:30am 12.6 NNW 3 4 1022.1 - 0.0 - - 10 - - - -
24/06:00am 10.5 W 3 4 1021.6 R 0.0 - - 10 - - - -
24/05:30am 10.1 CALM 0 0 1021.4 - 0.0 - Cloudy 10 - - - -
24/05:00am 10.2 NNW 3 4 1021.0 - 0.0 - Partly cloudy 10 - - - -
24/04:30am 9.8 N 5 5 1020.6 - 0.0 - - 10 - - - -
24/04:00am 10.9 NW 3 4 1020.4 - 0.0 - - 10 - - - -
24/03:30am 11.1 NNW 5 5 1020.3 - 0.0 - - 10 - - - -
24/03:00am 10.9 NNW 4 5 1020.2 R 0.0 - - 10 - - - -
24/02:30am 10.8 N 5 6 1020.3 - 0.0 - - 10 - - - -
24/02:00am 11.2 N 5 6 1020.3 - 0.0 - - 10 - - - -
24/01:30am 11.4 NNE 5 6 1020.3 - 0.0 - - 10 - - - -
24/01:00am 12.1 NNE 5 6 1020.4 - 0.0 - - 10 - - - -
24/12:30am 12.8 N 5 6 1020.4 - 0.0 - - 10 - - - -
24/12:00am 15.3 SSE 5 7 1020.6 R 0.0 - - 10 - - - -
 
Date/Time
WST
Temp
°C
Wind Pressure Rain since
9am
mm
Weather Cloud Vis
km
Sea
Height
m
Swell
Dir  Spd
kts
Gust
kts
hPa Trend Height
m
Period
s
Dir
23/11:30pm 15.6 SSE 5 6 1020.8 - 0.0 - Partly cloudy 10 - - - -
23/11:00pm 15.2 S 5 6 1020.9 - 0.0 - - 10 - - - -
23/10:30pm 15.8 S 4 5 1021.0 - 0.0 - Partly cloudy 10 - - - -
23/10:00pm 15.9 S 4 6 1020.8 - 0.0 - Partly cloudy 10 - - - -
23/09:30pm 16.2 S 7 9 1020.7 - 0.0 - Partly cloudy 10 - - - -
23/09:00pm 16.4 S 6 10 1020.3 R 0.0 - Mostly clear 10 - - - -
23/08:30pm 16.5 S 8 10 1019.9 - 0.0 - Partly cloudy 10 - - - -
23/08:00pm 16.5 S 7 10 1019.5 - 0.0 - Partly cloudy 10 - - - -
23/07:30pm 16.7 S 8 12 1019.1 - 0.0 - - 10 - - - -
23/07:00pm 17.0 S 9 14 1018.9 - 0.0 - Partly cloudy 10 - - - -
23/06:30pm 17.4 S 10 16 1018.5 - 0.0 - Partly cloudy 10 - - - -
23/06:00pm 17.9 S 9 14 1018.0 R 0.0 - Clear 10 - - - -
23/05:30pm 18.6 SSW 9 14 1017.6 - 0.0 - Partly cloudy 10 - - - -
23/05:00pm 18.5 S 12 17 1017.3 - 0.0 - Partly cloudy 10 - - - -
23/04:30pm 19.4 S 13 23 1017.0 - 0.0 - Partly cloudy 10 - - - -
23/04:00pm 18.8 S 14 19 1016.6 - 0.0 - Partly cloudy 10 - - - -
23/03:30pm 19.3 S 13 19 1016.5 - 0.0 - Partly cloudy 10 - - - -
23/03:00pm 19.1 S 14 21 1016.5 R 0.0 - Partly cloudy 10 - - - -
23/02:30pm 18.9 S 14 21 1016.6 - 0.0 - Partly cloudy 10 - - - -
23/02:00pm 19.2 SSW 13 20 1016.6 - 0.0 - Partly cloudy 10 - - - -
23/01:30pm 19.2 SSW 14 23 1016.5 - 0.0 - Partly cloudy 10 - - - -
23/01:00pm 20.5 SSW 14 21 1016.2 - 0.0 - Mostly clear 10 - - - -
23/12:30pm 19.6 SSW 13 23 1016.1 - 0.0 - Partly cloudy 10 - - - -
23/12:00pm 20.4 SSW 13 20 1015.8 R 0.0 - Cloudy 10 - - - -
23/11:30am 19.8 SSW 13 24 1015.6 - 0.0 - Partly cloudy 10 - - - -
23/11:00am 19.5 SSW 12 20 1015.4 - 0.0 - Partly cloudy 10 - - - -
23/10:30am 20.7 SW 11 19 1015.3 - 0.0 - Mostly clear 10 - - - -
23/10:00am 19.2 SSW 12 22 1015.1 - 0.0 - Partly cloudy 10 - - - -
23/09:30am 19.4 WSW 14 21 1014.6 - 0.0 - Mostly clear 10 - - - -
23/09:00am 17.5 SW 12 19 1014.6 R 0.0 - Cloudy 9 - - - -
23/08:30am 18.9 SSW 13 22 1014.2 - 0.0 - Mostly clear 10 - - - -
23/08:00am 19.1 SW 11 17 1014.0 - 0.0 - Mostly clear 10 - - - -
23/07:30am 19.1 SW 11 18 1013.7 - 0.0 - Mostly clear 10 - - - -
23/07:00am 19.1 SW 9 16 1013.4 - 0.0 - Mostly clear 10 - - - -
23/06:30am 18.2 WSW 9 16 1013.1 - 0.0 - Partly cloudy 10 - - - -
23/06:00am 15.7 W 5 7 1012.6 R 0.0 - Mostly clear 10 - - - -
23/05:30am 15.3 W 4 6 1012.0 - 0.0 - - 10 - - - -
23/05:00am 15.5 WSW 5 7 1011.5 - 0.0 - - 10 - - - -
23/04:30am 15.4 WSW 5 7 1011.2 - 0.0 - - 10 - - - -
23/04:00am 15.8 SW 6 8 1011.2 - 0.0 - - 10 - - - -
23/03:30am 16.0 WSW 6 7 1011.1 - 0.0 - - 10 - - - -
23/03:00am 15.9 SW 6 8 1010.8 R 0.0 - - 10 - - - -
23/02:30am 16.0 SW 6 8 1010.7 - 0.0 - - 10 - - - -
23/02:00am 16.3 SW 7 11 1010.6 - 0.0 - - 10 - - - -
23/01:30am 16.5 SW 8 10 1010.6 - 0.0 - Partly cloudy 10 - - - -
23/01:00am 16.8 SW 8 12 1010.7 - 0.0 - - 10 - - - -
23/12:30am 17.2 SSW 7 11 1010.8 - 0.0 - Partly cloudy 10 - - - -
23/12:00am 17.7 SSW 7 11 1010.8 F 0.0 - Cloudy 10 - - - -
 
Date/Time
WST
Temp
°C
Wind Pressure Rain since
9am
mm
Weather Cloud Vis
km
Sea
Height
m
Swell
Dir  Spd
kts
Gust
kts
hPa Trend Height
m
Period
s
Dir
22/11:30pm 17.2 SSW 10 17 1010.9 - 0.0 - Partly cloudy 10 - - - -
22/11:00pm 18.0 SSW 7 11 1011.0 - 0.0 - Cloudy 10 - - - -
22/10:30pm 18.3 SSW 9 12 1011.1 - 0.0 - Cloudy 10 - - - -
22/10:00pm 18.2 SSW 8 11 1011.2 - 0.0 - Partly cloudy 10 - - - -
22/09:30pm 17.6 SSW 9 14 1011.2 - 0.0 - Partly cloudy 10 - - - -
22/09:00pm 18.1 SSW 9 13 1011.0 R 0.0 - Mostly clear 10 - - - -
22/08:30pm 18.5 SSW 9 14 1010.8 - 0.0 - Partly cloudy 10 - - - -
22/08:00pm 18.5 SSW 10 14 1010.4 - 0.0 - Partly cloudy 10 - - - -
22/07:30pm 18.7 S 9 15 1010.2 - 0.0 - Partly cloudy 10 - - - -
22/07:00pm 19.0 S 10 16 1009.8 - 0.0 - Partly cloudy 10 - - - -
22/06:30pm 19.2 SSW 11 16 1009.3 - 0.0 - Partly cloudy 10 - - - -
22/06:00pm 19.5 S 12 19 1008.6 R 0.0 - Cloudy 10 - - - -
22/05:30pm 19.8 S 13 21 1008.1 - 0.0 - Partly cloudy 10 - - - -
22/05:00pm 20.6 S 16 23 1007.5 - 0.0 - Partly cloudy 10 - - - -
22/04:30pm 20.6 S 16 25 1007.4 - 0.0 - Cloudy 10 - - - -
22/04:09pm 20.2 SSW 15 25 1007.3 - 0.0 - Partly cloudy 10 - - - -
22/04:00pm 20.4 SSW 16 25 1007.4 - 0.0 - Partly cloudy 10 - - - -
22/03:30pm 20.8 SSW 18 26 1007.1 - 0.0 - Partly cloudy 10 - - - -
22/03:02pm 20.8 SSW 16 26 1007.1 - 0.0 - Partly cloudy 10 - - - -
22/03:00pm 20.9 SSW 16 25 1007.1 R 0.0 - Cloudy 10 - - - -
22/02:59pm 20.7 SSW 15 25 1007.1 - 0.0 - Partly cloudy 10 - - - -
22/02:30pm 21.2 SSW 17 24 1006.8 - 0.0 - Cloudy 10 - - - -
22/02:00pm 22.2 SW 15 23 1006.8 - 0.0 - Cloudy 10 - - - -
22/01:30pm 21.7 SSW 14 22 1006.6 - 0.0 - Cloudy 10 - - - -
22/01:00pm 21.9 SW 14 20 1006.6 - 0.0 - Cloudy 10 - - - -
22/12:30pm 23.9 WSW 14 20 1006.2 - 0.0 - Partly cloudy 10 - - - -
22/12:00pm 23.4 WSW 13 21 1006.2 R 0.0 - - 10 - - - -
22/11:30am 25.4 W 12 17 1006.1 - 0.0 - - 10 - - - -
22/11:00am 24.8 WSW 12 18 1006.2 - 0.0 - - 10 - - - -
22/10:30am 25.7 WSW 9 17 1006.1 - 0.0 - - 10 - - - -
22/10:00am 24.2 SSE 8 12 1005.9 - 0.0 - - 10 - - - -
22/09:30am 23.4 SE 8 11 1006.1 - 0.0 - - 10 - - - -
22/09:00am 22.9 SE 7 10 1006.2 F 0.0 - - 10 - - - -
22/08:30am 22.8 W 4 7 1006.4 - 0.0 - - 10 - - - -
22/08:00am 21.8 SE 3 5 1006.4 - 0.0 - - 10 - - - -
22/07:30am 20.2 SE 4 6 1006.8 - 0.0 - - 10 - - - -
22/07:00am 19.7 SE 5 6 1006.8 - 0.0 - - 10 - - - -
22/06:30am 19.3 ESE 5 6 1006.9 - 0.0 - - 10 - - - -
22/06:00am 18.4 ESE 5 5 1007.0 S 0.0 - - 10 - - - -
22/05:30am 16.9 ESE 4 6 1006.8 - 0.0 - - 10 - - - -
22/05:00am 16.6 ESE 5 6 1006.5 - 0.0 - - 10 - - - -
22/04:30am 17.0 E 5 7 1006.3 - 0.0 - - 10 - - - -
22/04:00am 17.4 E 5 6 1006.2 - 0.0 - - 10 - - - -
22/03:30am 17.7 E 5 6 1006.3 - 0.0 - - 10 - - - -
22/03:00am 17.7 E 5 7 1006.1 F 0.0 - - 10 - - - -
22/02:30am 17.6 E 5 6 1006.2 - 0.0 - - 10 - - - -
22/02:00am 18.1 E 5 6 1006.3 - 0.0 - - 10 - - - -
22/01:30am 18.8 ENE 5 8 1006.5 - 0.0 - - 10 - - - -
22/01:00am 18.8 NE 5 8 1006.5 - 0.0 - - 10 - - - -
22/12:30am 19.1 NE 6 7 1006.8 - 0.0 - - 10 - - - -
22/12:00am 19.5 NNE 7 8 1007.1 F 0.0 - - 10 - - - -
 
Date/Time
WST
Temp
°C
Wind Pressure Rain since
9am
mm
Weather Cloud Vis
km
Sea
Height
m
Swell
Dir  Spd
kts
Gust
kts
hPa Trend Height
m
Period
s
Dir
21/11:30pm 20.1 NE 7 11 1007.4 - 0.0 - - 10 - - - -

Other Formats:

Comma delimited format used in spreadsheet applications
http://www.bom.gov.au/fwo/IDW60701/IDW60701.94638.axf

JavaScript Object Notation format (JSON) in row-major order
http://www.bom.gov.au/fwo/IDW60701/IDW60701.94638.json